Time;durP1;ratioP1;P1;durP2;ratioP2;P2;SDS_P1;SDS_P2;PMS_P1;PMS_P2;Temp;Humidity;BMP_temperature;BMP_pressure;BME280_temperature;BME280_humidity;BME280_pressure;Samples;Min_cycle;Max_cycle;Signal;HPM_P1;HPM_P2
2023/06/25 00:00:51;;;;;;;18.10;12.70;;;;;;;;;;4935331;28;20050;-65
2023/06/25 00:03:16;;;;;;;18.30;12.73;;;;;;;;;;4915254;28;20030;-64
2023/06/25 00:05:42;;;;;;;18.52;13.70;;;;;;;;;;4934974;28;20133;-65
2023/06/25 00:08:09;;;;;;;19.67;13.80;;;;;;;;;;4932840;28;20042;-65
2023/06/25 00:10:34;;;;;;;17.63;13.73;;;;;;;;;;4935596;28;20039;-64
2023/06/25 00:13:00;;;;;;;19.77;14.60;;;;;;;;;;4934725;28;20703;-65
2023/06/25 00:15:27;;;;;;;18.15;14.05;;;;;;;;;;4914626;28;20043;-65
2023/06/25 00:17:54;;;;;;;20.60;14.05;;;;;;;;;;4935328;28;20062;-64
2023/06/25 00:20:24;;;;;;;20.73;13.85;;;;;;;;;;4934244;28;20042;-65
2023/06/25 00:22:50;;;;;;;19.48;13.88;;;;;;;;;;4935882;28;20042;-65
2023/06/25 00:25:16;;;;;;;17.73;13.48;;;;;;;;;;4913797;28;20050;-63
2023/06/25 00:27:46;;;;;;;17.10;12.52;;;;;;;;;;4934978;28;20166;-64
2023/06/25 00:30:12;;;;;;;17.48;12.52;;;;;;;;;;4919577;28;20492;-65
2023/06/25 00:32:37;;;;;;;17.25;11.73;;;;;;;;;;4934371;28;20086;-62
2023/06/25 00:35:04;;;;;;;18.23;11.60;;;;;;;;;;4916045;28;20576;-64
2023/06/25 00:37:29;;;;;;;16.40;11.05;;;;;;;;;;4933874;28;20039;-64
2023/06/25 00:39:55;;;;;;;17.05;11.85;;;;;;;;;;4934704;28;20522;-65
2023/06/25 00:42:20;;;;;;;16.25;11.60;;;;;;;;;;4934973;28;20200;-64
2023/06/25 00:44:48;;;;;;;17.35;12.00;;;;;;;;;;4916898;28;20050;-64
2023/06/25 00:47:15;;;;;;;18.85;12.18;;;;;;;;;;4933885;28;20419;-64
2023/06/25 00:49:41;;;;;;;16.95;12.50;;;;;;;;;;4934580;28;20038;-64
2023/06/25 00:52:10;;;;;;;16.77;11.45;;;;;;;;;;4934417;28;20077;-64
2023/06/25 00:54:39;;;;;;;15.65;10.95;;;;;;;;;;4934309;28;20042;-64
2023/06/25 00:57:05;;;;;;;14.40;11.30;;;;;;;;;;4933938;28;20519;-64
2023/06/25 00:59:31;;;;;;;20.38;11.40;;;;;;;;;;4935926;28;20050;-64
2023/06/25 01:01:59;;;;;;;16.77;11.38;;;;;;;;;;4936491;28;20030;-64
2023/06/25 01:04:27;;;;;;;15.82;11.50;;;;;;;;;;4937821;28;20144;-65
2023/06/25 01:06:55;;;;;;;15.40;11.10;;;;;;;;;;4937255;28;20101;-64
2023/06/25 01:09:23;;;;;;;15.95;11.07;;;;;;;;;;4937029;28;20031;-65
2023/06/25 01:12:02;;;;;;;18.60;11.35;;;;;;;;;;4936951;28;20136;-65
2023/06/25 01:14:28;;;;;;;15.57;11.65;;;;;;;;;;4936794;28;20038;-64
2023/06/25 01:16:54;;;;;;;15.48;11.30;;;;;;;;;;4936198;28;20049;-65
2023/06/25 01:19:19;;;;;;;17.20;10.63;;;;;;;;;;4938154;28;20865;-65
2023/06/25 01:21:45;;;;;;;14.18;10.98;;;;;;;;;;4924337;28;20031;-64
2023/06/25 01:24:11;;;;;;;17.77;11.02;;;;;;;;;;4937079;28;20032;-64
2023/06/25 01:26:38;;;;;;;16.33;11.20;;;;;;;;;;4915665;28;20191;-64
2023/06/25 01:29:03;;;;;;;17.52;11.18;;;;;;;;;;4934919;28;20038;-64
2023/06/25 01:31:30;;;;;;;14.73;11.20;;;;;;;;;;4934376;28;20129;-64
2023/06/25 01:33:56;;;;;;;15.48;11.55;;;;;;;;;;4936399;28;20038;-64
2023/06/25 01:36:21;;;;;;;16.27;11.73;;;;;;;;;;4935211;28;20200;-64
2023/06/25 01:38:47;;;;;;;13.43;11.25;;;;;;;;;;4931573;28;20046;-64
2023/06/25 01:41:12;;;;;;;17.30;11.98;;;;;;;;;;4934429;28;20046;-64
2023/06/25 01:43:37;;;;;;;16.70;11.55;;;;;;;;;;4935173;28;20105;-64
2023/06/25 01:46:03;;;;;;;14.88;11.48;;;;;;;;;;4936640;28;20047;-65
2023/06/25 01:48:33;;;;;;;17.45;11.82;;;;;;;;;;4929984;28;20100;-65
2023/06/25 01:50:58;;;;;;;19.33;11.75;;;;;;;;;;4933505;28;20528;-65
2023/06/25 01:53:23;;;;;;;18.75;12.57;;;;;;;;;;4936258;28;20042;-65
2023/06/25 01:55:49;;;;;;;17.05;12.48;;;;;;;;;;4937925;28;20401;-65
2023/06/25 01:58:16;;;;;;;19.27;12.35;;;;;;;;;;4916422;28;20636;-65
2023/06/25 02:00:47;;;;;;;17.13;12.80;;;;;;;;;;4935694;28;20041;-65
2023/06/25 02:03:12;;;;;;;16.75;12.82;;;;;;;;;;4934616;28;20090;-64
2023/06/25 02:05:38;;;;;;;19.13;13.25;;;;;;;;;;4936320;28;20866;-66
2023/06/25 02:08:03;;;;;;;18.33;13.07;;;;;;;;;;4936702;28;20039;-63
2023/06/25 02:10:28;;;;;;;18.65;13.70;;;;;;;;;;4918163;28;20036;-63
2023/06/25 02:12:54;;;;;;;20.75;14.27;;;;;;;;;;4935856;28;20047;-64
2023/06/25 02:15:21;;;;;;;20.52;14.75;;;;;;;;;;4891139;28;20051;-63
2023/06/25 02:17:46;;;;;;;22.17;14.07;;;;;;;;;;4926521;28;20468;-64
2023/06/25 02:20:12;;;;;;;20.88;13.95;;;;;;;;;;4937714;28;20039;-64
2023/06/25 02:22:37;;;;;;;22.60;14.30;;;;;;;;;;4936757;28;20491;-63
2023/06/25 02:25:02;;;;;;;18.80;14.18;;;;;;;;;;4940062;28;20128;-64
2023/06/25 02:27:28;;;;;;;18.00;13.95;;;;;;;;;;4940171;28;20038;-64
2023/06/25 02:29:53;;;;;;;21.75;14.73;;;;;;;;;;4941726;28;20066;-64
2023/06/25 02:32:18;;;;;;;22.33;14.23;;;;;;;;;;4941045;28;20042;-64
2023/06/25 02:34:43;;;;;;;20.90;14.90;;;;;;;;;;4909112;28;20814;-65
2023/06/25 02:37:15;;;;;;;21.92;14.60;;;;;;;;;;4918794;28;20030;-64
2023/06/25 02:39:41;;;;;;;18.58;13.80;;;;;;;;;;4940758;28;20103;-64
2023/06/25 02:42:06;;;;;;;20.08;13.90;;;;;;;;;;4940785;28;20035;-64
2023/06/25 02:44:31;;;;;;;18.25;14.25;;;;;;;;;;4939981;28;20131;-64
2023/06/25 02:46:57;;;;;;;21.33;13.85;;;;;;;;;;4939624;28;20065;-64
2023/06/25 02:49:22;;;;;;;20.85;14.15;;;;;;;;;;4923002;28;20512;-64
2023/06/25 02:51:47;;;;;;;18.20;13.38;;;;;;;;;;4940185;28;20588;-64
2023/06/25 02:54:13;;;;;;;21.63;13.63;;;;;;;;;;4939955;28;20039;-65
2023/06/25 02:56:38;;;;;;;21.27;14.68;;;;;;;;;;4939319;28;20051;-63
2023/06/25 02:59:03;;;;;;;19.55;14.00;;;;;;;;;;4940524;28;20031;-64
2023/06/25 03:01:31;;;;;;;19.10;13.05;;;;;;;;;;4938060;28;20086;-64
2023/06/25 03:03:56;;;;;;;21.70;14.38;;;;;;;;;;4921850;28;20030;-64
2023/06/25 03:06:21;;;;;;;19.50;13.13;;;;;;;;;;4939010;28;20092;-64
2023/06/25 03:08:47;;;;;;;18.63;13.25;;;;;;;;;;4939584;28;20143;-65
2023/06/25 03:11:12;;;;;;;19.65;13.57;;;;;;;;;;4939685;28;20031;-65
2023/06/25 03:13:37;;;;;;;20.38;13.52;;;;;;;;;;4922006;28;22032;-64
2023/06/25 03:16:03;;;;;;;19.10;13.65;;;;;;;;;;4935544;28;20496;-64
2023/06/25 03:18:28;;;;;;;19.23;13.63;;;;;;;;;;4934791;28;20038;-64
2023/06/25 03:20:53;;;;;;;18.05;13.43;;;;;;;;;;4938342;28;20047;-64
2023/06/25 03:23:19;;;;;;;19.33;13.18;;;;;;;;;;4938590;28;20089;-65
2023/06/25 03:25:44;;;;;;;18.73;12.95;;;;;;;;;;4936910;28;20039;-64
2023/06/25 03:28:09;;;;;;;17.25;12.90;;;;;;;;;;4938623;28;20427;-64
2023/06/25 03:30:37;;;;;;;19.83;13.55;;;;;;;;;;4937624;28;20059;-64
2023/06/25 03:33:02;;;;;;;17.63;12.52;;;;;;;;;;4937435;28;20045;-65
2023/06/25 03:35:27;;;;;;;17.77;12.73;;;;;;;;;;4939432;28;20480;-64
2023/06/25 03:37:52;;;;;;;19.45;12.75;;;;;;;;;;4938234;28;20058;-64
2023/06/25 03:40:18;;;;;;;18.20;12.48;;;;;;;;;;4917986;28;20035;-64
2023/06/25 03:42:43;;;;;;;21.52;12.57;;;;;;;;;;4938760;28;20114;-65
2023/06/25 03:45:08;;;;;;;16.50;12.38;;;;;;;;;;4937412;28;20038;-64
2023/06/25 03:47:34;;;;;;;19.13;12.20;;;;;;;;;;4936475;28;20756;-64
2023/06/25 03:49:59;;;;;;;20.08;12.63;;;;;;;;;;4936830;28;20034;-64
2023/06/25 03:52:24;;;;;;;19.02;11.85;;;;;;;;;;4934117;28;20088;-64
2023/06/25 03:54:50;;;;;;;17.45;12.77;;;;;;;;;;4933200;28;20047;-64
2023/06/25 03:57:15;;;;;;;20.30;12.82;;;;;;;;;;4937332;28;20039;-64
2023/06/25 03:59:42;;;;;;;17.63;12.73;;;;;;;;;;4936302;28;20030;-64
2023/06/25 04:02:08;;;;;;;19.13;12.68;;;;;;;;;;4936898;28;20380;-64
2023/06/25 04:04:36;;;;;;;17.63;12.07;;;;;;;;;;4935964;28;20484;-64
2023/06/25 04:07:01;;;;;;;18.70;12.73;;;;;;;;;;4938810;28;20046;-69
2023/06/25 04:09:26;;;;;;;18.27;12.00;;;;;;;;;;4938992;28;20046;-68
2023/06/25 04:11:54;;;;;;;17.85;12.18;;;;;;;;;;4938117;28;20093;-68
2023/06/25 04:14:19;;;;;;;19.15;13.73;;;;;;;;;;4920006;28;20042;-64
2023/06/25 04:16:44;;;;;;;18.05;12.88;;;;;;;;;;4937185;28;20075;-64
2023/06/25 04:19:10;;;;;;;18.02;12.93;;;;;;;;;;4921025;28;20051;-63
2023/06/25 04:21:35;;;;;;;16.65;12.65;;;;;;;;;;4938475;28;20069;-64
2023/06/25 04:24:01;;;;;;;18.00;12.90;;;;;;;;;;4919662;28;20120;-65
2023/06/25 04:26:26;;;;;;;20.15;12.98;;;;;;;;;;4919848;28;21007;-65
2023/06/25 04:28:51;;;;;;;16.80;13.15;;;;;;;;;;4937277;28;20685;-64
2023/06/25 04:31:16;;;;;;;20.20;13.60;;;;;;;;;;4938108;28;20053;-64
2023/06/25 04:33:42;;;;;;;17.83;12.98;;;;;;;;;;4939099;28;20130;-64
2023/06/25 04:36:09;;;;;;;17.10;12.27;;;;;;;;;;4940044;28;20042;-64
2023/06/25 04:38:34;;;;;;;20.13;13.80;;;;;;;;;;4939488;28;20096;-64
2023/06/25 04:41:00;;;;;;;18.60;13.55;;;;;;;;;;4938324;28;20034;-64
2023/06/25 04:43:25;;;;;;;16.48;12.85;;;;;;;;;;4937411;28;20045;-64
2023/06/25 04:45:51;;;;;;;20.48;12.85;;;;;;;;;;4930315;28;20098;-65
2023/06/25 04:48:17;;;;;;;21.27;13.70;;;;;;;;;;4937062;28;20039;-64
2023/06/25 04:50:42;;;;;;;18.35;12.20;;;;;;;;;;4936895;28;20052;-65
2023/06/25 04:53:08;;;;;;;18.90;12.10;;;;;;;;;;4914476;28;20035;-65
2023/06/25 04:55:35;;;;;;;18.13;13.18;;;;;;;;;;4917911;28;20050;-64
2023/06/25 04:58:01;;;;;;;16.85;12.20;;;;;;;;;;4938867;28;20035;-64
2023/06/25 05:00:26;;;;;;;17.30;12.68;;;;;;;;;;4938523;28;20155;-64
2023/06/25 05:02:51;;;;;;;18.85;12.43;;;;;;;;;;4932283;28;20511;-64
2023/06/25 05:05:16;;;;;;;17.75;13.10;;;;;;;;;;4936973;28;20105;-64
2023/06/25 05:07:42;;;;;;;18.52;12.57;;;;;;;;;;4937242;28;20035;-63
2023/06/25 05:10:07;;;;;;;17.38;12.43;;;;;;;;;;4916328;28;20073;-62
2023/06/25 05:12:33;;;;;;;16.95;12.57;;;;;;;;;;4938633;28;20035;-62
2023/06/25 05:14:58;;;;;;;16.38;11.50;;;;;;;;;;4939359;28;20061;-63
2023/06/25 05:17:23;;;;;;;16.33;11.95;;;;;;;;;;4938568;28;20039;-64
2023/06/25 05:19:48;;;;;;;20.08;12.52;;;;;;;;;;4921131;28;20046;-63
2023/06/25 05:22:14;;;;;;;15.30;11.10;;;;;;;;;;4936561;28;20183;-62
2023/06/25 05:24:39;;;;;;;13.55;10.48;;;;;;;;;;4911939;28;20094;-63
2023/06/25 05:27:05;;;;;;;16.02;10.68;;;;;;;;;;4918666;28;20694;-63
2023/06/25 05:29:32;;;;;;;14.93;10.95;;;;;;;;;;4937177;28;20047;-62
2023/06/25 05:31:58;;;;;;;15.85;10.35;;;;;;;;;;4936560;28;20072;-64
2023/06/25 05:34:24;;;;;;;12.93;9.93;;;;;;;;;;4937014;28;20157;-62
2023/06/25 05:36:49;;;;;;;13.88;10.20;;;;;;;;;;4937549;28;22146;-62
2023/06/25 05:39:14;;;;;;;12.95;9.85;;;;;;;;;;4936894;28;22445;-63
2023/06/25 05:41:40;;;;;;;11.73;9.93;;;;;;;;;;4935843;28;20085;-63
2023/06/25 05:44:05;;;;;;;13.18;10.25;;;;;;;;;;4936049;28;20445;-63
2023/06/25 05:46:30;;;;;;;11.27;9.70;;;;;;;;;;4917739;28;20178;-63
2023/06/25 05:48:56;;;;;;;14.43;10.73;;;;;;;;;;4934579;28;20051;-62
2023/06/25 05:51:21;;;;;;;15.13;10.05;;;;;;;;;;4933625;28;20130;-64
2023/06/25 05:53:47;;;;;;;15.25;10.02;;;;;;;;;;4918767;28;20226;-62
2023/06/25 05:56:12;;;;;;;11.57;9.68;;;;;;;;;;4913293;28;21273;-62
2023/06/25 05:58:38;;;;;;;12.75;9.65;;;;;;;;;;4937822;28;20039;-63
2023/06/25 06:01:04;;;;;;;12.38;9.57;;;;;;;;;;4917650;28;20038;-63
2023/06/25 06:03:29;;;;;;;11.60;9.52;;;;;;;;;;4918913;28;20034;-63
2023/06/25 06:05:55;;;;;;;11.80;8.90;;;;;;;;;;4918309;28;20514;-63
2023/06/25 06:08:21;;;;;;;11.23;9.50;;;;;;;;;;4937477;28;20082;-64
2023/06/25 06:10:46;;;;;;;12.82;9.50;;;;;;;;;;4937926;28;20039;-63
2023/06/25 06:13:11;;;;;;;15.50;9.40;;;;;;;;;;4938572;28;20035;-65
2023/06/25 06:15:37;;;;;;;15.13;9.75;;;;;;;;;;4920725;28;20051;-63
2023/06/25 06:18:02;;;;;;;13.63;9.32;;;;;;;;;;4941299;28;20082;-64
2023/06/25 06:20:27;;;;;;;11.70;8.88;;;;;;;;;;4924940;28;20046;-63
2023/06/25 06:22:53;;;;;;;13.80;9.20;;;;;;;;;;4938988;28;20146;-63
2023/06/25 06:25:18;;;;;;;9.80;7.32;;;;;;;;;;4937784;28;22327;-62
2023/06/25 06:27:43;;;;;;;11.23;8.27;;;;;;;;;;4939898;28;20046;-63
2023/06/25 06:30:09;;;;;;;12.10;8.75;;;;;;;;;;4940344;28;20381;-62
2023/06/25 06:32:34;;;;;;;10.48;8.13;;;;;;;;;;4903717;28;20586;-62
2023/06/25 06:34:59;;;;;;;11.90;8.35;;;;;;;;;;4940752;28;20499;-63
2023/06/25 06:37:25;;;;;;;11.23;8.05;;;;;;;;;;4921709;28;20042;-62
2023/06/25 06:39:50;;;;;;;11.02;7.57;;;;;;;;;;4918755;28;20633;-64
2023/06/25 06:42:15;;;;;;;9.57;6.63;;;;;;;;;;4938635;28;20146;-62
2023/06/25 06:44:41;;;;;;;8.32;6.20;;;;;;;;;;4940444;28;20042;-62
2023/06/25 06:47:06;;;;;;;11.00;7.25;;;;;;;;;;4918134;28;20054;-64
2023/06/25 06:49:33;;;;;;;12.57;8.60;;;;;;;;;;4939458;28;20053;-62
2023/06/25 06:51:58;;;;;;;9.80;7.28;;;;;;;;;;4938272;28;20063;-61
2023/06/25 06:54:26;;;;;;;10.13;6.93;;;;;;;;;;4904282;28;20070;-62
2023/06/25 06:56:52;;;;;;;9.27;6.80;;;;;;;;;;4933955;28;20042;-63
2023/06/25 06:59:17;;;;;;;8.25;6.32;;;;;;;;;;4933257;28;20808;-63
2023/06/25 07:01:43;;;;;;;7.18;6.03;;;;;;;;;;4936732;28;20045;-63
2023/06/25 07:04:08;;;;;;;10.35;5.65;;;;;;;;;;4935495;28;20046;-63
2023/06/25 07:06:36;;;;;;;10.95;6.70;;;;;;;;;;4935756;28;20633;-64
2023/06/25 07:09:01;;;;;;;9.35;6.57;;;;;;;;;;4935663;28;20034;-64
2023/06/25 07:11:26;;;;;;;12.60;7.10;;;;;;;;;;4927588;28;20039;-63
2023/06/25 07:13:52;;;;;;;7.68;6.07;;;;;;;;;;4928290;28;20035;-62
2023/06/25 07:16:17;;;;;;;8.68;5.88;;;;;;;;;;4932746;28;20089;-64
2023/06/25 07:18:43;;;;;;;9.82;6.15;;;;;;;;;;4938126;28;20619;-62
2023/06/25 07:21:09;;;;;;;8.07;5.95;;;;;;;;;;4933199;28;20038;-63
2023/06/25 07:23:35;;;;;;;9.57;6.00;;;;;;;;;;4934957;28;21151;-62
2023/06/25 07:26:00;;;;;;;12.35;5.18;;;;;;;;;;4934127;28;20412;-61
2023/06/25 07:28:25;;;;;;;11.25;5.50;;;;;;;;;;4935655;28;20037;-63
2023/06/25 07:30:51;;;;;;;9.57;6.00;;;;;;;;;;4934709;28;20066;-62
2023/06/25 07:33:16;;;;;;;9.55;5.90;;;;;;;;;;4917376;28;20043;-62
2023/06/25 07:35:42;;;;;;;8.48;5.90;;;;;;;;;;4933378;28;20055;-64
2023/06/25 07:38:07;;;;;;;7.45;5.38;;;;;;;;;;4915001;28;20042;-62
2023/06/25 07:40:32;;;;;;;7.15;5.13;;;;;;;;;;4918109;28;20042;-61
2023/06/25 07:42:57;;;;;;;9.00;5.50;;;;;;;;;;4932708;28;20432;-62
2023/06/25 07:45:23;;;;;;;8.15;5.85;;;;;;;;;;4934157;28;20437;-62
2023/06/25 07:47:48;;;;;;;7.85;5.43;;;;;;;;;;4934374;28;20054;-62
2023/06/25 07:50:14;;;;;;;7.47;5.55;;;;;;;;;;4920392;28;20042;-62
2023/06/25 07:52:41;;;;;;;13.65;5.60;;;;;;;;;;4933648;28;20636;-61
2023/06/25 07:55:06;;;;;;;8.98;5.63;;;;;;;;;;4931275;28;20035;-62
2023/06/25 07:57:32;;;;;;;15.07;6.28;;;;;;;;;;4934600;28;20525;-62
2023/06/25 07:59:57;;;;;;;8.95;5.22;;;;;;;;;;4913598;28;20106;-62
2023/06/25 08:02:23;;;;;;;8.13;5.53;;;;;;;;;;4912028;28;20049;-62
2023/06/25 08:04:48;;;;;;;7.18;4.90;;;;;;;;;;4934216;28;20039;-62
2023/06/25 08:07:14;;;;;;;5.65;3.60;;;;;;;;;;4912370;28;20050;-62
2023/06/25 08:09:40;;;;;;;5.32;3.95;;;;;;;;;;4919944;28;20043;-62
2023/06/25 08:12:05;;;;;;;8.23;4.35;;;;;;;;;;4934678;28;20074;-64
2023/06/25 08:14:33;;;;;;;6.10;3.88;;;;;;;;;;4912061;28;20622;-63
2023/06/25 08:17:04;;;;;;;5.38;3.53;;;;;;;;;;4934362;28;21348;-61
2023/06/25 08:19:29;;;;;;;6.57;4.00;;;;;;;;;;4935884;28;20368;-62
2023/06/25 08:21:55;;;;;;;5.25;3.35;;;;;;;;;;4934965;28;20378;-62
2023/06/25 08:24:20;;;;;;;7.50;4.20;;;;;;;;;;4912869;28;20031;-62
2023/06/25 08:26:45;;;;;;;6.22;3.97;;;;;;;;;;4936515;28;20034;-63
2023/06/25 08:29:11;;;;;;;8.45;3.38;;;;;;;;;;4935089;28;20809;-62
2023/06/25 08:31:36;;;;;;;4.78;3.28;;;;;;;;;;4935679;28;20935;-63
2023/06/25 08:34:02;;;;;;;8.50;3.78;;;;;;;;;;4937244;28;20135;-63
2023/06/25 08:36:30;;;;;;;5.05;3.30;;;;;;;;;;4914774;28;20050;-63
2023/06/25 08:38:57;;;;;;;4.20;3.28;;;;;;;;;;4935423;28;21598;-63
2023/06/25 08:41:23;;;;;;;6.60;4.18;;;;;;;;;;4915459;28;20057;-63
2023/06/25 08:43:49;;;;;;;5.65;3.85;;;;;;;;;;4910017;28;20038;-62
2023/06/25 08:46:14;;;;;;;5.75;2.92;;;;;;;;;;4891861;28;20139;-63
2023/06/25 08:48:39;;;;;;;4.50;3.35;;;;;;;;;;4933834;28;20118;-62
2023/06/25 08:51:17;;;;;;;4.90;3.00;;;;;;;;;;4928742;28;20039;-62
2023/06/25 08:53:43;;;;;;;4.93;2.83;;;;;;;;;;4932758;28;22437;-64
2023/06/25 08:56:09;;;;;;;5.32;3.40;;;;;;;;;;4913729;28;20515;-60
2023/06/25 08:58:36;;;;;;;9.02;3.45;;;;;;;;;;4934438;28;20063;-63
2023/06/25 09:01:01;;;;;;;6.40;2.80;;;;;;;;;;4906492;28;20038;-62
2023/06/25 09:03:27;;;;;;;5.72;2.67;;;;;;;;;;4934146;28;20486;-61
2023/06/25 09:05:53;;;;;;;7.25;2.75;;;;;;;;;;4917457;28;20456;-62
2023/06/25 09:08:21;;;;;;;4.82;2.80;;;;;;;;;;4934089;28;20042;-62
2023/06/25 09:10:53;;;;;;;3.70;2.67;;;;;;;;;;4934511;28;20570;-63
2023/06/25 09:13:25;;;;;;;6.65;3.00;;;;;;;;;;4929960;28;20085;-63
2023/06/25 09:16:00;;;;;;;4.18;2.72;;;;;;;;;;4925875;28;20039;-63
2023/06/25 09:18:25;;;;;;;3.63;2.60;;;;;;;;;;4929482;28;20035;-63
2023/06/25 09:20:51;;;;;;;3.17;2.47;;;;;;;;;;4930480;28;20117;-64
2023/06/25 09:23:20;;;;;;;5.10;3.22;;;;;;;;;;4932382;28;20047;-64
2023/06/25 09:25:45;;;;;;;5.93;2.72;;;;;;;;;;4911234;28;20031;-63
2023/06/25 09:28:11;;;;;;;4.28;2.70;;;;;;;;;;4934313;28;20082;-66
2023/06/25 09:30:40;;;;;;;4.63;2.95;;;;;;;;;;4911875;28;20039;-61
2023/06/25 09:33:05;;;;;;;3.65;2.70;;;;;;;;;;4934000;28;20040;-63
2023/06/25 09:35:31;;;;;;;4.07;2.47;;;;;;;;;;4940268;28;20499;-63
2023/06/25 09:37:57;;;;;;;3.58;2.60;;;;;;;;;;4936384;28;20684;-64
2023/06/25 09:40:22;;;;;;;3.95;2.95;;;;;;;;;;4914992;28;20057;-64
2023/06/25 09:42:48;;;;;;;5.32;3.28;;;;;;;;;;4938514;28;20162;-60
2023/06/25 09:45:17;;;;;;;6.82;4.00;;;;;;;;;;4938303;28;20150;-62
2023/06/25 09:47:45;;;;;;;6.82;4.93;;;;;;;;;;4917041;28;20039;-64
2023/06/25 09:50:16;;;;;;;6.90;4.68;;;;;;;;;;4937537;28;20168;-63
2023/06/25 09:52:43;;;;;;;5.93;4.35;;;;;;;;;;4936982;28;20122;-61
2023/06/25 09:55:10;;;;;;;8.68;5.40;;;;;;;;;;4934765;28;20717;-64
2023/06/25 09:57:35;;;;;;;7.38;5.80;;;;;;;;;;4938836;28;20153;-62
2023/06/25 10:00:01;;;;;;;6.97;5.72;;;;;;;;;;4919190;28;20039;-63
2023/06/25 10:02:26;;;;;;;8.45;5.72;;;;;;;;;;4937159;28;20165;-64
2023/06/25 10:04:51;;;;;;;8.45;6.18;;;;;;;;;;4940715;28;20488;-61
2023/06/25 10:07:17;;;;;;;8.35;6.78;;;;;;;;;;4941239;28;20081;-60
2023/06/25 10:09:53;;;;;;;10.45;7.10;;;;;;;;;;4942204;28;20396;-64
2023/06/25 10:12:20;;;;;;;9.75;7.15;;;;;;;;;;4941544;28;20093;-62
2023/06/25 10:14:46;;;;;;;8.82;6.30;;;;;;;;;;4938319;28;20760;-62
2023/06/25 10:17:12;;;;;;;10.35;6.65;;;;;;;;;;4938670;28;20480;-62
2023/06/25 10:19:50;;;;;;;8.52;6.65;;;;;;;;;;4941288;28;20046;-61
2023/06/25 10:22:20;;;;;;;11.10;7.47;;;;;;;;;;4926469;28;20070;-63
2023/06/25 10:24:51;;;;;;;8.13;6.57;;;;;;;;;;4922132;28;20050;-63
2023/06/25 10:27:28;;;;;;;8.95;5.90;;;;;;;;;;4935837;28;20041;-63
2023/06/25 10:29:54;;;;;;;6.70;5.00;;;;;;;;;;4923040;28;20492;-62
2023/06/25 10:32:23;;;;;;;7.85;4.32;;;;;;;;;;4937677;28;22403;-64
2023/06/25 10:34:56;;;;;;;5.50;3.85;;;;;;;;;;4938594;28;20918;-61
2023/06/25 10:37:21;;;;;;;7.80;3.90;;;;;;;;;;4935225;28;20034;-61
2023/06/25 10:39:49;;;;;;;7.88;4.70;;;;;;;;;;4928023;28;20117;-63
2023/06/25 10:42:14;;;;;;;7.75;4.43;;;;;;;;;;4933259;28;22021;-63
2023/06/25 10:44:40;;;;;;;5.72;4.20;;;;;;;;;;4928143;28;20031;-63
2023/06/25 10:47:07;;;;;;;5.10;3.08;;;;;;;;;;4913933;28;20039;-64
2023/06/25 10:49:32;;;;;;;5.05;3.40;;;;;;;;;;4917091;28;20044;-63
2023/06/25 10:51:58;;;;;;;6.68;3.72;;;;;;;;;;4912194;28;20799;-64
2023/06/25 10:54:24;;;;;;;6.65;4.60;;;;;;;;;;4900361;28;20173;-62
2023/06/25 10:56:49;;;;;;;6.60;4.55;;;;;;;;;;4918028;28;20051;-62
2023/06/25 10:59:24;;;;;;;7.30;4.30;;;;;;;;;;4916677;28;22562;-62
2023/06/25 11:01:50;;;;;;;5.47;4.40;;;;;;;;;;4909627;28;20126;-64
2023/06/25 11:04:15;;;;;;;5.60;4.40;;;;;;;;;;4916448;28;20046;-62
2023/06/25 11:06:40;;;;;;;7.60;4.82;;;;;;;;;;4917217;28;20039;-63
2023/06/25 11:09:06;;;;;;;9.20;5.50;;;;;;;;;;4918054;28;20134;-64
2023/06/25 11:11:31;;;;;;;9.02;5.10;;;;;;;;;;4917369;28;20105;-63
2023/06/25 11:13:59;;;;;;;7.90;4.57;;;;;;;;;;4896103;28;20496;-62
2023/06/25 11:16:24;;;;;;;5.00;3.90;;;;;;;;;;4916805;28;20064;-62
2023/06/25 11:18:50;;;;;;;8.52;4.85;;;;;;;;;;4917416;28;20039;-62
2023/06/25 11:21:16;;;;;;;6.35;4.57;;;;;;;;;;4915936;28;20039;-63
2023/06/25 11:23:47;;;;;;;6.63;5.35;;;;;;;;;;4917461;28;20086;-63
2023/06/25 11:26:17;;;;;;;8.25;5.60;;;;;;;;;;4916394;28;20118;-63
2023/06/25 11:28:42;;;;;;;6.20;4.85;;;;;;;;;;4916212;28;20051;-63
2023/06/25 11:31:07;;;;;;;6.80;5.28;;;;;;;;;;4914168;28;20888;-64
2023/06/25 11:33:33;;;;;;;7.20;4.70;;;;;;;;;;4914061;28;20035;-64
2023/06/25 11:36:11;;;;;;;6.68;4.22;;;;;;;;;;4908964;28;20047;-63
2023/06/25 11:38:36;;;;;;;7.65;5.90;;;;;;;;;;4909886;28;20335;-64
2023/06/25 11:41:04;;;;;;;6.35;4.72;;;;;;;;;;4907738;28;20031;-64
2023/06/25 11:43:31;;;;;;;8.73;5.35;;;;;;;;;;4911133;28;20044;-62
2023/06/25 11:46:01;;;;;;;11.30;5.25;;;;;;;;;;4889235;28;20106;-63
2023/06/25 11:48:29;;;;;;;10.32;5.07;;;;;;;;;;4908825;28;20526;-63
2023/06/25 11:51:04;;;;;;;9.23;6.05;;;;;;;;;;4913002;28;20057;-63
2023/06/25 11:53:30;;;;;;;8.15;5.53;;;;;;;;;;4912949;28;20043;-63
2023/06/25 11:55:55;;;;;;;6.35;5.00;;;;;;;;;;4910361;28;20062;-64
2023/06/25 11:58:20;;;;;;;7.22;5.63;;;;;;;;;;4913764;28;20078;-64
2023/06/25 12:00:46;;;;;;;6.93;5.32;;;;;;;;;;4911856;28;20114;-63
2023/06/25 12:03:11;;;;;;;7.18;6.00;;;;;;;;;;4908663;28;20051;-63
2023/06/25 12:05:36;;;;;;;9.40;6.45;;;;;;;;;;4929475;28;20092;-63
2023/06/25 12:08:02;;;;;;;9.02;5.90;;;;;;;;;;4917367;28;20879;-64
2023/06/25 12:10:27;;;;;;;8.43;5.82;;;;;;;;;;4919166;28;20074;-64
2023/06/25 12:12:55;;;;;;;7.68;5.95;;;;;;;;;;4917152;28;20051;-64
2023/06/25 12:15:20;;;;;;;11.75;6.10;;;;;;;;;;4915426;28;21001;-64
2023/06/25 12:17:45;;;;;;;8.25;5.75;;;;;;;;;;4915039;28;20055;-65
2023/06/25 12:20:11;;;;;;;9.25;5.95;;;;;;;;;;4895638;28;20801;-63
2023/06/25 12:22:36;;;;;;;7.72;5.80;;;;;;;;;;4899853;28;20043;-64
2023/06/25 12:25:01;;;;;;;7.82;5.47;;;;;;;;;;4916563;28;20046;-63
2023/06/25 12:27:27;;;;;;;8.25;5.80;;;;;;;;;;4917526;28;20792;-63
2023/06/25 12:29:52;;;;;;;8.30;5.38;;;;;;;;;;4929350;28;20090;-64
2023/06/25 12:32:17;;;;;;;5.88;4.60;;;;;;;;;;4916404;28;20031;-63
2023/06/25 12:34:43;;;;;;;7.20;4.68;;;;;;;;;;4914762;28;20047;-62
2023/06/25 12:37:11;;;;;;;6.95;4.63;;;;;;;;;;4925346;28;20071;-64
2023/06/25 12:39:38;;;;;;;6.78;4.35;;;;;;;;;;4913808;28;20063;-63
2023/06/25 12:42:06;;;;;;;5.72;3.65;;;;;;;;;;4914319;28;20042;-64
2023/06/25 12:44:31;;;;;;;4.93;3.90;;;;;;;;;;4914993;28;20115;-62
2023/06/25 12:46:57;;;;;;;5.55;3.78;;;;;;;;;;4916864;28;20046;-63
2023/06/25 12:49:22;;;;;;;5.60;4.40;;;;;;;;;;4933428;28;20808;-63
2023/06/25 12:51:50;;;;;;;5.32;3.40;;;;;;;;;;4901101;28;20138;-63
2023/06/25 12:54:15;;;;;;;5.72;3.70;;;;;;;;;;4935811;28;20039;-63
2023/06/25 12:56:40;;;;;;;4.82;3.30;;;;;;;;;;4934360;28;20050;-64
2023/06/25 12:59:06;;;;;;;6.15;3.47;;;;;;;;;;4934917;28;20046;-63
2023/06/25 13:01:31;;;;;;;6.50;3.38;;;;;;;;;;4916277;28;20038;-63
2023/06/25 13:03:59;;;;;;;5.82;3.40;;;;;;;;;;4912788;28;20078;-64
2023/06/25 13:06:24;;;;;;;5.38;3.53;;;;;;;;;;4933421;28;20046;-64
2023/06/25 13:08:52;;;;;;;5.35;3.70;;;;;;;;;;4918099;28;20203;-63
2023/06/25 13:11:17;;;;;;;6.22;3.78;;;;;;;;;;4916103;28;20109;-63
2023/06/25 13:13:43;;;;;;;5.43;3.35;;;;;;;;;;4933202;28;20625;-63
2023/06/25 13:16:08;;;;;;;4.78;3.50;;;;;;;;;;4932634;28;20843;-63
2023/06/25 13:18:35;;;;;;;5.13;3.95;;;;;;;;;;4932442;28;20077;-63
2023/06/25 13:21:01;;;;;;;6.50;4.60;;;;;;;;;;4927090;28;20038;-64
2023/06/25 13:23:28;;;;;;;7.20;4.97;;;;;;;;;;4931761;28;20042;-64
2023/06/25 13:25:53;;;;;;;7.50;4.72;;;;;;;;;;4932516;28;20718;-64
2023/06/25 13:28:19;;;;;;;6.25;4.38;;;;;;;;;;4932082;28;20036;-64
2023/06/25 13:30:45;;;;;;;5.93;4.95;;;;;;;;;;4937793;28;20866;-64
2023/06/25 13:33:11;;;;;;;6.97;4.20;;;;;;;;;;4933787;28;20039;-64
2023/06/25 13:35:36;;;;;;;6.95;5.03;;;;;;;;;;4915371;28;20120;-63
2023/06/25 13:38:02;;;;;;;5.53;4.40;;;;;;;;;;4932903;28;20035;-63
2023/06/25 13:40:29;;;;;;;7.72;4.53;;;;;;;;;;4935578;28;20059;-64
2023/06/25 13:42:55;;;;;;;7.75;4.80;;;;;;;;;;4922073;28;20062;-64
2023/06/25 13:45:20;;;;;;;7.78;5.70;;;;;;;;;;4919630;28;20066;-64
2023/06/25 13:47:45;;;;;;;9.27;6.05;;;;;;;;;;4935087;28;20119;-63
2023/06/25 13:50:13;;;;;;;7.47;5.28;;;;;;;;;;4933623;28;20038;-62
2023/06/25 13:52:40;;;;;;;5.95;4.40;;;;;;;;;;4932997;28;20497;-64
2023/06/25 13:55:08;;;;;;;5.80;4.72;;;;;;;;;;4924700;28;20102;-64
2023/06/25 13:57:36;;;;;;;7.60;5.38;;;;;;;;;;4934650;28;20496;-63
2023/06/25 14:00:01;;;;;;;7.38;5.28;;;;;;;;;;4933427;28;20087;-64
2023/06/25 14:02:26;;;;;;;7.47;5.25;;;;;;;;;;4933536;28;20830;-63
2023/06/25 14:04:52;;;;;;;7.40;4.93;;;;;;;;;;4933025;28;20027;-64
2023/06/25 14:07:19;;;;;;;6.93;4.88;;;;;;;;;;4934429;28;20041;-63
2023/06/25 14:09:45;;;;;;;7.40;5.45;;;;;;;;;;4932756;28;20034;-64
2023/06/25 14:12:10;;;;;;;4.57;3.60;;;;;;;;;;4935572;28;20392;-64
2023/06/25 14:14:40;;;;;;;7.68;5.68;;;;;;;;;;4933703;28;20031;-63
2023/06/25 14:17:05;;;;;;;9.07;5.60;;;;;;;;;;4935255;28;20539;-64
2023/06/25 14:19:31;;;;;;;6.57;4.75;;;;;;;;;;4932768;28;20062;-64
2023/06/25 14:21:56;;;;;;;6.60;4.55;;;;;;;;;;4938508;28;20073;-64
2023/06/25 14:24:22;;;;;;;4.70;3.70;;;;;;;;;;4937304;28;20039;-63